Scanpipe II — LGWY — position and weather

sailwx.info

Track history (hours):
 
Tides and Currents Weather Stations Pressure Air Temp Water Temp Dewpoint Dewpoint Depression Visibility Wind Speed Wind Dir Waves Ship Positions

Scanpipe II

Last reported at 2018-Apr-22 07:02 UTC. Time now 2018-Apr-23 03:50 UTC.
Position N 63°26' E 010°23'.

Length 26 m.

Type: Dredging. MMSI: 257294700.

Date/timePositionNaut miles runAvg speedWind from/ knotsBaromVisibWave heightAir tempDewpointWater temp
2018-Apr-22 07:02N 63°26' E 010°23'1 2.2
2018-Apr-22 06:43N 63°27' E 010°24'1 3.3
2018-Apr-22 06:29N 63°27' E 010°25'0 0.0
2018-Apr-22 05:41N 63°27' E 010°25'0 0.0
2018-Apr-22 05:26N 63°27' E 010°25'0 0.0
2018-Apr-22 04:44N 63°27' E 010°25'0 0.0
2018-Apr-22 04:26N 63°27' E 010°25'0 0.0
2018-Apr-22 03:00N 63°27' E 010°25'0 0.0
2018-Apr-22 02:18N 63°27' E 010°25'0 0.0
2018-Apr-22 01:54N 63°27' E 010°25'0 0.0
2018-Apr-22 01:18N 63°27' E 010°25'0 0.0
2018-Apr-22 00:54N 63°27' E 010°25'0 0.0
2018-Apr-22 00:18N 63°27' E 010°25'0 0.0
2018-Apr-22 00:00N 63°27' E 010°25'0 0.0
2018-Apr-21 23:18N 63°27' E 010°25'0 0.0
2018-Apr-21 22:57N 63°27' E 010°25'0 0.3
2018-Apr-21 22:29N 63°27' E 010°25'  
2018-Apr-14 07:24N 64°51' E 011°13'3 7.4
2018-Apr-14 07:00N 64°53' E 011°18'4 8.0
2018-Apr-14 06:30N 64°56' E 011°25'4 8.3
2018-Apr-14 06:00N 64°58' E 011°33'151 8.1
2018-Apr-13 11:19N 67°14' E 014°13'3 8.8
2018-Apr-13 11:00N 67°16' E 014°18'2 4.4
2018-Apr-13 10:30N 67°17' E 014°23'0 0.0
2018-Apr-13 10:00N 67°17' E 014°23'0 0.0
2018-Apr-13 09:30N 67°17' E 014°23'0 0.0
2018-Apr-13 09:00N 67°17' E 014°23'0 0.0
2018-Apr-13 08:31N 67°17' E 014°23'4 6.9
2018-Apr-13 08:00N 67°21' E 014°23'  
Track history (hours):
 
Tides and Currents Weather Stations Pressure Air Temp Water Temp Dewpoint Dewpoint Depression Visibility Wind Speed Wind Dir Waves Ship Positions

Scanpipe II

Last reported at 2018-Apr-22 07:02 UTC. Time now 2018-Apr-23 03:50 UTC.
Position N 63°26' E 010°23'.

Length 26 m.

Type: Dredging. MMSI: 257294700.

Date/timePositionNaut miles runAvg speedWind from/ knotsBaromVisibWave heightAir tempDewpointWater temp
2018-Apr-22 07:02N 63°26' E 010°23'1 2.2
2018-Apr-22 06:43N 63°27' E 010°24'1 3.3
2018-Apr-22 06:29N 63°27' E 010°25'0 0.0
2018-Apr-22 05:41N 63°27' E 010°25'0 0.0
2018-Apr-22 05:26N 63°27' E 010°25'0 0.0
2018-Apr-22 04:44N 63°27' E 010°25'0 0.0
2018-Apr-22 04:26N 63°27' E 010°25'0 0.0
2018-Apr-22 03:00N 63°27' E 010°25'0 0.0
2018-Apr-22 02:18N 63°27' E 010°25'0 0.0
2018-Apr-22 01:54N 63°27' E 010°25'0 0.0
2018-Apr-22 01:18N 63°27' E 010°25'0 0.0
2018-Apr-22 00:54N 63°27' E 010°25'0 0.0
2018-Apr-22 00:18N 63°27' E 010°25'0 0.0
2018-Apr-22 00:00N 63°27' E 010°25'0 0.0
2018-Apr-21 23:18N 63°27' E 010°25'0 0.0
2018-Apr-21 22:57N 63°27' E 010°25'0 0.3
2018-Apr-21 22:29N 63°27' E 010°25'  
2018-Apr-14 07:24N 64°51' E 011°13'3 7.4
2018-Apr-14 07:00N 64°53' E 011°18'4 8.0
2018-Apr-14 06:30N 64°56' E 011°25'4 8.3
2018-Apr-14 06:00N 64°58' E 011°33'151 8.1
2018-Apr-13 11:19N 67°14' E 014°13'3 8.8
2018-Apr-13 11:00N 67°16' E 014°18'2 4.4
2018-Apr-13 10:30N 67°17' E 014°23'0 0.0
2018-Apr-13 10:00N 67°17' E 014°23'0 0.0
2018-Apr-13 09:30N 67°17' E 014°23'0 0.0
2018-Apr-13 09:00N 67°17' E 014°23'0 0.0
2018-Apr-13 08:31N 67°17' E 014°23'4 6.9
2018-Apr-13 08:00N 67°21' E 014°23'  

Dump ship's entire track history